createdAt,value
2022-10-08T00:01:31.880Z,14.00
2022-10-08T00:03:58.651Z,14.00
2022-10-08T00:19:14.308Z,13.80
2022-10-08T00:21:43.260Z,13.80
2022-10-08T00:24:19.476Z,13.90
2022-10-08T00:26:51.710Z,13.90
2022-10-08T00:29:22.190Z,13.90
2022-10-08T00:31:49.957Z,13.90
2022-10-08T00:34:22.323Z,14.00
2022-10-08T00:36:53.862Z,14.00
2022-10-08T00:39:23.193Z,13.90
2022-10-08T00:41:54.897Z,13.90
2022-10-08T00:44:43.227Z,13.90
2022-10-08T00:47:26.711Z,14.00
2022-10-08T00:50:00.605Z,13.90
2022-10-08T00:52:32.891Z,13.90
2022-10-08T00:55:06.073Z,13.80
2022-10-08T00:57:36.962Z,13.80
2022-10-08T01:00:39.356Z,13.80
2022-10-08T01:03:06.648Z,13.70
2022-10-08T01:05:44.992Z,13.70
2022-10-08T01:08:34.298Z,13.70
2022-10-08T01:11:10.555Z,13.80
2022-10-08T01:14:14.282Z,13.80
2022-10-08T01:17:02.062Z,13.80
2022-10-08T01:20:06.695Z,13.80
2022-10-08T01:23:04.630Z,13.70
2022-10-08T01:25:56.480Z,13.70
2022-10-08T01:28:50.804Z,13.60
2022-10-08T01:31:27.643Z,13.60
2022-10-08T01:34:13.130Z,13.60
2022-10-08T01:36:48.159Z,13.60
2022-10-08T01:39:22.743Z,13.60
2022-10-08T01:41:53.132Z,13.70
2022-10-08T01:44:23.709Z,13.70
2022-10-08T01:46:59.025Z,13.70
2022-10-08T01:49:29.876Z,13.80
2022-10-08T01:52:12.619Z,13.70
2022-10-08T01:54:49.742Z,13.70
2022-10-08T01:57:23.879Z,13.70
2022-10-08T01:59:56.551Z,13.70
2022-10-08T02:02:24.237Z,13.80
2022-10-08T02:04:53.072Z,13.80
2022-10-08T02:07:21.263Z,13.80
2022-10-08T02:10:05.279Z,13.90
2022-10-08T02:12:32.345Z,14.00
2022-10-08T02:15:01.575Z,14.10
2022-10-08T02:17:42.651Z,14.20
2022-10-08T02:20:10.490Z,14.20
2022-10-08T02:23:20.212Z,14.30
2022-10-08T02:26:16.662Z,14.40
2022-10-08T02:28:54.858Z,14.50
2022-10-08T02:31:43.370Z,14.50
2022-10-08T02:34:28.020Z,14.60
2022-10-08T02:37:17.881Z,14.60
2022-10-08T02:39:50.510Z,14.70
2022-10-08T02:42:21.106Z,14.70
2022-10-08T02:44:54.134Z,14.70
2022-10-08T02:47:25.335Z,14.70
2022-10-08T02:50:03.039Z,14.70
2022-10-08T02:52:38.660Z,14.70
2022-10-08T03:03:58.453Z,14.80
2022-10-08T03:06:27.732Z,14.80
2022-10-08T03:09:02.902Z,14.90
2022-10-08T03:11:30.890Z,14.90
2022-10-08T03:13:58.930Z,14.90
2022-10-08T03:16:37.849Z,14.90
2022-10-08T03:19:18.270Z,14.90
2022-10-08T03:21:47.551Z,14.90
2022-10-08T03:24:18.837Z,14.90
2022-10-08T03:26:48.228Z,14.90
2022-10-08T03:29:17.752Z,14.90
2022-10-08T03:31:54.296Z,14.90
2022-10-08T03:34:21.043Z,14.90
2022-10-08T03:36:52.781Z,14.90
2022-10-08T03:39:23.825Z,14.90
2022-10-08T03:41:50.484Z,14.90
2022-10-08T03:44:17.155Z,14.90
2022-10-08T03:46:47.565Z,14.90
2022-10-08T03:49:14.308Z,14.90
2022-10-08T03:51:42.078Z,14.90
2022-10-08T03:54:15.205Z,14.90
2022-10-08T03:56:44.433Z,14.90
2022-10-08T03:59:11.268Z,14.90
2022-10-08T04:01:45.862Z,14.90
2022-10-08T04:04:13.943Z,14.90
2022-10-08T04:06:42.846Z,15.00
2022-10-08T04:09:11.945Z,15.00
2022-10-08T04:11:41.212Z,15.00
2022-10-08T04:14:12.089Z,15.00
2022-10-08T04:16:38.787Z,14.90
2022-10-08T04:19:10.834Z,14.90
2022-10-08T04:21:37.592Z,14.90
2022-10-08T04:24:05.619Z,14.90
2022-10-08T04:26:32.330Z,14.90
2022-10-08T04:29:00.861Z,14.90
2022-10-08T04:31:31.899Z,14.90
2022-10-08T04:33:59.939Z,14.90
2022-10-08T04:36:26.488Z,14.90
2022-10-08T04:38:53.103Z,14.90
2022-10-08T04:41:27.907Z,14.90
2022-10-08T04:44:00.487Z,14.90
2022-10-08T04:46:27.160Z,14.90
2022-10-08T04:48:55.775Z,14.90
2022-10-08T04:51:25.078Z,14.90
2022-10-08T04:53:53.826Z,14.90
2022-10-08T04:56:24.198Z,14.90
2022-10-08T04:58:54.436Z,14.80
2022-10-08T05:01:22.699Z,14.80
2022-10-08T05:03:54.167Z,14.80
2022-10-08T05:06:24.352Z,14.80
2022-10-08T05:09:06.275Z,14.70
2022-10-08T05:11:33.866Z,14.80
2022-10-08T05:22:45.372Z,14.60
2022-10-08T05:25:13.672Z,14.60
2022-10-08T05:27:42.659Z,14.60
2022-10-08T05:30:10.758Z,14.50
2022-10-08T05:32:39.975Z,14.40
2022-10-08T05:35:07.171Z,14.40
2022-10-08T05:37:45.088Z,14.40
2022-10-08T05:40:19.744Z,14.40
2022-10-08T05:42:49.146Z,14.30
2022-10-08T05:45:16.178Z,14.30
2022-10-08T05:47:43.044Z,14.30
2022-10-08T05:50:10.889Z,14.20
2022-10-08T05:52:37.523Z,14.20
2022-10-08T05:55:07.472Z,14.20
2022-10-08T05:57:47.449Z,14.20
2022-10-08T06:00:18.073Z,14.20
2022-10-08T06:02:45.008Z,14.10
2022-10-08T06:05:16.985Z,14.10
2022-10-08T06:07:44.711Z,14.10
2022-10-08T06:10:19.207Z,14.10
2022-10-08T06:12:52.111Z,14.10
2022-10-08T06:15:18.690Z,14.10
2022-10-08T06:17:52.157Z,14.10
2022-10-08T06:20:20.848Z,14.00
2022-10-08T06:22:51.508Z,14.10
2022-10-08T06:25:18.118Z,14.10
2022-10-08T06:27:44.814Z,14.10
2022-10-08T06:30:15.829Z,14.10
2022-10-08T06:32:44.834Z,14.20
2022-10-08T06:35:11.566Z,14.20
2022-10-08T06:37:47.885Z,14.30
2022-10-08T06:40:17.014Z,14.30
2022-10-08T06:42:43.789Z,14.30
2022-10-08T06:45:15.228Z,14.30
2022-10-08T06:47:42.048Z,14.40
2022-10-08T06:50:09.170Z,14.30
2022-10-08T06:52:49.855Z,14.30
2022-10-08T06:55:17.172Z,14.40
2022-10-08T06:57:43.738Z,14.40
2022-10-08T07:00:13.787Z,14.50
2022-10-08T07:03:08.247Z,14.50
2022-10-08T07:05:35.962Z,14.60
2022-10-08T07:08:02.576Z,14.60
2022-10-08T07:10:33.162Z,14.60
2022-10-08T07:13:12.407Z,14.70
2022-10-08T07:15:44.595Z,14.70
2022-10-08T07:18:12.046Z,14.70
2022-10-08T07:20:46.105Z,14.80
2022-10-08T07:23:12.640Z,14.80
2022-10-08T07:25:39.234Z,14.80
2022-10-08T07:28:06.967Z,14.80
2022-10-08T07:30:36.029Z,14.90
2022-10-08T07:33:05.559Z,14.90
2022-10-08T07:35:32.365Z,15.00
2022-10-08T07:37:58.961Z,15.00
2022-10-08T07:40:25.641Z,15.10
2022-10-08T07:42:55.349Z,15.10
2022-10-08T07:57:33.173Z,15.00
2022-10-08T08:00:01.275Z,15.10
2022-10-08T08:02:28.898Z,15.10
2022-10-08T08:04:57.699Z,15.10
2022-10-08T08:07:25.228Z,15.10
2022-10-08T08:09:51.836Z,15.20
2022-10-08T08:12:20.643Z,15.30
2022-10-08T08:14:52.831Z,15.30
2022-10-08T08:17:21.779Z,15.30
2022-10-08T08:19:48.449Z,15.40
2022-10-08T08:22:17.204Z,15.50
2022-10-08T08:25:11.097Z,15.50
2022-10-08T08:27:39.264Z,15.50
2022-10-08T08:30:06.475Z,15.50
2022-10-08T08:32:33.288Z,15.40
2022-10-08T08:35:02.369Z,15.50
2022-10-08T08:37:33.923Z,15.40
2022-10-08T08:40:06.846Z,15.50
2022-10-08T08:42:45.033Z,15.80
2022-10-08T08:45:45.738Z,16.10
2022-10-08T08:48:14.883Z,16.30
2022-10-08T08:50:46.680Z,16.40
2022-10-08T08:53:23.828Z,16.40
2022-10-08T08:56:00.520Z,16.50
2022-10-08T08:58:52.772Z,16.50
2022-10-08T09:01:45.788Z,16.70
2022-10-08T09:04:51.571Z,16.80
2022-10-08T09:07:26.027Z,16.80
2022-10-08T09:09:58.109Z,16.80
2022-10-08T09:12:37.413Z,16.80
2022-10-08T09:15:22.352Z,16.70
2022-10-08T09:17:52.211Z,16.80
2022-10-08T09:20:22.362Z,16.80
2022-10-08T09:22:51.618Z,16.90
2022-10-08T09:25:27.514Z,16.80
2022-10-08T09:27:57.571Z,16.70
2022-10-08T09:30:30.514Z,16.60
2022-10-08T09:33:22.634Z,16.70
2022-10-08T09:35:51.575Z,16.70
2022-10-08T09:38:45.318Z,16.80
2022-10-08T09:41:19.469Z,16.90
2022-10-08T09:44:04.907Z,17.00
2022-10-08T09:46:34.844Z,17.20
2022-10-08T09:49:27.668Z,17.50
2022-10-08T09:52:03.189Z,17.70
2022-10-08T09:54:43.505Z,17.80
2022-10-08T09:57:16.529Z,17.80
2022-10-08T10:00:01.662Z,17.90
2022-10-08T10:02:34.923Z,18.00
2022-10-08T10:05:05.807Z,18.10
2022-10-08T10:07:42.222Z,18.00
2022-10-08T10:10:27.448Z,18.10
2022-10-08T10:13:21.856Z,18.30
2022-10-08T10:16:13.801Z,18.70
2022-10-08T10:19:12.617Z,19.20
2022-10-08T10:22:19.052Z,19.40
2022-10-08T10:25:05.522Z,19.80
2022-10-08T10:27:38.520Z,20.00
2022-10-08T10:30:21.896Z,20.10
2022-10-08T10:33:17.574Z,20.00
2022-10-08T10:36:13.216Z,20.10
2022-10-08T10:39:13.474Z,19.90
2022-10-08T10:42:06.937Z,19.60
2022-10-08T10:45:25.808Z,19.30
2022-10-08T10:48:07.328Z,19.10
2022-10-08T11:12:32.070Z,18.70
2022-10-08T11:15:17.805Z,19.20
2022-10-08T11:18:14.633Z,19.60
2022-10-08T11:21:18.208Z,19.50
2022-10-08T11:24:21.438Z,19.20
2022-10-08T11:26:57.921Z,18.80
2022-10-08T11:29:34.557Z,18.80
2022-10-08T11:32:03.317Z,18.60
2022-10-08T11:34:34.558Z,18.60
2022-10-08T11:37:24.518Z,18.50
2022-10-08T11:39:56.473Z,18.50
2022-10-08T11:42:49.118Z,18.40
2022-10-08T11:45:23.111Z,18.40
2022-10-08T11:47:53.542Z,18.40
2022-10-08T11:50:42.324Z,18.50
2022-10-08T11:53:18.664Z,18.90
2022-10-08T11:55:56.767Z,19.00
2022-10-08T11:58:32.749Z,19.10
2022-10-08T12:01:08.078Z,19.10
2022-10-08T12:03:39.108Z,19.00
2022-10-08T12:06:39.856Z,19.00
2022-10-08T12:09:07.510Z,19.30
2022-10-08T12:11:39.113Z,19.40
2022-10-08T12:14:11.463Z,19.80
2022-10-08T12:16:47.663Z,20.30
2022-10-08T12:19:37.851Z,20.60
2022-10-08T12:22:17.120Z,20.70
2022-10-08T12:24:49.648Z,20.80
2022-10-08T12:27:16.689Z,20.90
2022-10-08T12:30:06.878Z,21.10
2022-10-08T12:32:33.447Z,21.00
2022-10-08T12:35:01.099Z,20.80
2022-10-08T12:38:03.157Z,20.60
2022-10-08T12:40:41.538Z,20.30
2022-10-08T12:43:24.633Z,20.10
2022-10-08T12:52:28.909Z,19.60
2022-10-08T12:55:28.318Z,19.50
2022-10-08T12:58:03.546Z,19.50
2022-10-08T13:00:33.500Z,19.50
2022-10-08T13:03:24.838Z,19.50
2022-10-08T13:06:09.319Z,19.40
2022-10-08T13:08:39.264Z,19.40
2022-10-08T13:11:17.689Z,19.40
2022-10-08T13:13:50.223Z,19.40
2022-10-08T13:16:20.107Z,19.40
2022-10-08T13:18:54.864Z,19.50
2022-10-08T13:33:22.624Z,19.30
2022-10-08T13:35:58.321Z,19.40
2022-10-08T13:38:32.771Z,19.40
2022-10-08T13:41:26.847Z,19.50
2022-10-08T13:43:57.101Z,19.60
2022-10-08T13:46:33.368Z,19.80
2022-10-08T13:49:27.840Z,20.20
2022-10-08T13:51:57.616Z,20.60
2022-10-08T13:54:31.667Z,21.10
2022-10-08T13:57:00.123Z,21.50
2022-10-08T13:59:30.413Z,21.50
2022-10-08T14:02:07.151Z,21.40
2022-10-08T14:04:38.801Z,21.10
2022-10-08T14:07:30.141Z,21.10
2022-10-08T14:09:59.727Z,21.20
2022-10-08T14:12:37.539Z,21.20
2022-10-08T14:15:07.584Z,21.10
2022-10-08T14:17:35.761Z,21.10
2022-10-08T14:20:06.832Z,21.10
2022-10-08T14:22:39.997Z,20.90
2022-10-08T14:25:31.136Z,20.70
2022-10-08T14:28:04.667Z,20.50
2022-10-08T14:30:37.157Z,20.50
2022-10-08T14:33:07.659Z,20.70
2022-10-08T14:35:37.963Z,20.90
2022-10-08T14:38:08.896Z,21.20
2022-10-08T14:40:36.683Z,21.40
2022-10-08T14:43:03.336Z,21.60
2022-10-08T14:45:35.444Z,21.80
2022-10-08T14:48:03.513Z,21.70
2022-10-08T14:50:45.293Z,21.60
2022-10-08T14:53:14.901Z,21.70
2022-10-08T14:56:00.824Z,21.60
2022-10-08T14:58:35.390Z,21.60
2022-10-08T15:01:02.987Z,21.60
2022-10-08T15:03:30.971Z,21.50
2022-10-08T15:06:07.597Z,21.50
2022-10-08T15:08:40.796Z,21.40
2022-10-08T15:11:07.743Z,21.40
2022-10-08T15:13:34.547Z,21.40
2022-10-08T15:16:14.110Z,21.50
2022-10-08T15:18:41.292Z,21.50
2022-10-08T15:21:14.968Z,21.50
2022-10-08T15:23:45.149Z,21.50
2022-10-08T15:26:14.571Z,21.50
2022-10-08T15:28:52.510Z,21.50
2022-10-08T15:31:21.840Z,21.40
2022-10-08T15:33:50.610Z,21.30
2022-10-08T15:36:31.139Z,21.00
2022-10-08T15:39:04.268Z,20.80
2022-10-08T15:41:36.468Z,20.70
2022-10-08T15:44:17.934Z,20.50
2022-10-08T15:46:59.807Z,20.20
2022-10-08T15:49:37.439Z,20.00
2022-10-08T15:52:46.190Z,19.80
2022-10-08T15:55:57.366Z,19.60
2022-10-08T15:58:49.049Z,19.50
2022-10-08T16:01:22.033Z,19.40
2022-10-08T16:03:52.587Z,19.30
2022-10-08T16:06:32.472Z,19.20
2022-10-08T16:09:03.076Z,19.20
2022-10-08T16:11:36.912Z,19.00
2022-10-08T16:14:22.295Z,18.90
2022-10-08T16:16:50.414Z,18.80
2022-10-08T16:19:20.468Z,18.70
2022-10-08T16:21:49.360Z,18.50
2022-10-08T16:24:22.840Z,18.50
2022-10-08T16:26:55.419Z,18.50
2022-10-08T16:29:22.123Z,18.40
2022-10-08T16:32:49.829Z,18.40
2022-10-08T16:35:17.770Z,18.30
2022-10-08T16:37:53.940Z,18.20
2022-10-08T16:40:42.508Z,18.10
2022-10-08T16:43:15.793Z,17.90
2022-10-08T16:45:48.686Z,17.80
2022-10-08T16:48:24.716Z,17.70
2022-10-08T16:53:42.092Z,17.50
2022-10-08T16:56:11.528Z,17.40
2022-10-08T16:58:41.198Z,17.30
2022-10-08T17:01:16.005Z,17.30
2022-10-08T17:03:43.158Z,17.20
2022-10-08T17:06:10.397Z,17.10
2022-10-08T17:08:37.226Z,17.00
2022-10-08T17:11:29.429Z,16.90
2022-10-08T17:13:58.165Z,16.70
2022-10-08T17:16:35.252Z,16.60
2022-10-08T17:19:15.249Z,16.40
2022-10-08T17:21:43.058Z,16.10
2022-10-08T17:24:42.461Z,16.00
2022-10-08T17:27:12.924Z,15.80
2022-10-08T17:29:49.347Z,15.60
2022-10-08T17:32:23.196Z,15.50
2022-10-08T17:34:59.014Z,15.40
2022-10-08T17:37:33.098Z,15.30
2022-10-08T17:40:11.974Z,15.10
2022-10-08T17:42:41.221Z,15.00
2022-10-08T17:45:21.540Z,14.90
2022-10-08T17:47:49.370Z,14.80
2022-10-08T17:50:18.283Z,14.80
2022-10-08T17:52:50.673Z,14.80
2022-10-08T17:55:23.049Z,14.70
2022-10-08T17:57:52.642Z,14.60
2022-10-08T18:00:19.816Z,14.60
2022-10-08T18:02:52.753Z,14.60
2022-10-08T18:05:20.280Z,14.50
2022-10-08T18:07:48.358Z,14.40
2022-10-08T18:10:18.192Z,14.30
2022-10-08T18:12:46.440Z,14.30
2022-10-08T18:15:25.218Z,14.20
2022-10-08T18:17:54.686Z,14.20
2022-10-08T18:20:21.380Z,14.10
2022-10-08T18:22:53.006Z,14.20
2022-10-08T18:25:22.217Z,14.10
2022-10-08T18:27:49.149Z,14.10
2022-10-08T18:30:19.979Z,14.10
2022-10-08T18:32:49.503Z,14.10
2022-10-08T18:35:18.993Z,14.00
2022-10-08T18:37:48.901Z,13.90
2022-10-08T18:40:17.331Z,13.80
2022-10-08T18:43:17.020Z,13.60
2022-10-08T18:45:49.969Z,13.30
2022-10-08T18:48:16.996Z,13.30
2022-10-08T18:50:49.623Z,13.20
2022-10-08T18:53:20.387Z,13.20
2022-10-08T18:55:56.112Z,13.10
2022-10-08T18:58:24.204Z,13.10
2022-10-08T19:01:04.293Z,13.10
2022-10-08T19:03:33.177Z,13.10
2022-10-08T19:06:05.372Z,13.00
2022-10-08T19:08:59.545Z,12.90
2022-10-08T19:11:40.624Z,12.90
2022-10-08T19:26:34.349Z,12.90
2022-10-08T19:29:02.498Z,12.90
2022-10-08T19:31:35.263Z,12.90
2022-10-08T19:34:03.016Z,12.90
2022-10-08T19:36:36.269Z,12.90
2022-10-08T19:39:11.604Z,12.80
2022-10-08T19:41:39.463Z,12.70
2022-10-08T19:44:15.887Z,12.60
2022-10-08T19:46:48.433Z,12.60
2022-10-08T19:49:20.255Z,12.50
2022-10-08T19:52:00.256Z,12.50
2022-10-08T19:54:28.775Z,12.40
2022-10-08T19:56:55.390Z,12.40
2022-10-08T19:59:22.713Z,12.30
2022-10-08T20:01:55.037Z,12.20
2022-10-08T20:04:33.200Z,12.10
2022-10-08T20:07:01.510Z,12.00
2022-10-08T20:09:29.926Z,11.90
2022-10-08T20:12:09.750Z,11.90
2022-10-08T20:14:36.521Z,11.90
2022-10-08T20:17:05.260Z,11.80
2022-10-08T20:19:34.489Z,11.90
2022-10-08T20:22:11.575Z,11.90
2022-10-08T20:24:44.485Z,11.90
2022-10-08T20:27:11.323Z,11.80
2022-10-08T20:29:38.163Z,11.90
2022-10-08T20:32:05.337Z,11.80
2022-10-08T20:34:33.262Z,11.80
2022-10-08T20:37:00.692Z,11.80
2022-10-08T20:39:28.131Z,11.70
2022-10-08T20:41:55.015Z,11.60
2022-10-08T20:44:46.816Z,11.60
2022-10-08T20:47:13.637Z,11.50
2022-10-08T20:49:44.854Z,11.50
2022-10-08T20:52:19.603Z,11.50
2022-10-08T20:54:47.303Z,11.50
2022-10-08T20:57:14.000Z,11.40
2022-10-08T20:59:40.940Z,11.30
2022-10-08T21:02:09.495Z,11.30
2022-10-08T21:04:36.368Z,11.30
2022-10-08T21:07:14.377Z,11.30
2022-10-08T21:09:51.960Z,11.30
2022-10-08T21:12:19.701Z,11.30
2022-10-08T21:14:47.214Z,11.20
2022-10-08T21:17:15.932Z,11.10
2022-10-08T21:19:42.571Z,11.10
2022-10-08T21:22:09.680Z,11.00
2022-10-08T21:27:44.450Z,11.00
2022-10-08T21:30:14.233Z,10.90
2022-10-08T21:32:41.325Z,10.90
2022-10-08T21:35:08.426Z,10.80
2022-10-08T21:37:41.553Z,10.80
2022-10-08T21:40:10.024Z,10.80
2022-10-08T21:42:37.251Z,10.80
2022-10-08T21:45:09.077Z,10.70
2022-10-08T21:47:38.007Z,10.70
2022-10-08T21:50:16.528Z,10.60
2022-10-08T21:52:43.129Z,10.60
2022-10-08T21:55:09.747Z,10.60
2022-10-08T21:57:49.020Z,10.50
2022-10-08T22:00:17.924Z,10.40
2022-10-08T22:02:44.593Z,10.40
2022-10-08T22:05:11.257Z,10.40
2022-10-08T22:07:38.027Z,10.40
2022-10-08T22:10:05.101Z,10.40
2022-10-08T22:12:33.871Z,10.40
2022-10-08T22:15:01.685Z,10.40
2022-10-08T22:17:30.354Z,10.40
2022-10-08T22:19:57.002Z,10.40
2022-10-08T22:22:28.041Z,10.50
2022-10-08T22:25:02.415Z,10.50
2022-10-08T22:27:29.197Z,10.40
2022-10-08T22:29:55.834Z,10.30
2022-10-08T22:32:26.550Z,10.20
2022-10-08T22:34:53.239Z,10.00
2022-10-08T22:37:23.559Z,9.90
2022-10-08T22:39:56.646Z,9.80
2022-10-08T22:42:28.666Z,9.70
2022-10-08T22:44:58.559Z,9.60
2022-10-08T22:47:27.498Z,9.60
2022-10-08T22:50:20.320Z,9.50
2022-10-08T22:52:49.723Z,9.40
2022-10-08T22:55:16.866Z,9.40
2022-10-08T22:57:49.684Z,9.50
2022-10-08T23:00:17.362Z,9.50
2022-10-08T23:02:44.231Z,9.50
2022-10-08T23:05:12.330Z,9.50
2022-10-08T23:07:40.207Z,9.60
2022-10-08T23:10:07.183Z,9.60
2022-10-08T23:12:33.796Z,9.70
2022-10-08T23:15:35.610Z,9.80
2022-10-08T23:18:06.214Z,9.80
2022-10-08T23:32:48.924Z,9.80
2022-10-08T23:35:19.728Z,9.70
2022-10-08T23:37:47.945Z,9.60
2022-10-08T23:40:17.847Z,9.50
2022-10-08T23:42:50.229Z,9.50
2022-10-08T23:45:17.167Z,9.40
2022-10-08T23:47:47.253Z,9.40
2022-10-08T23:50:14.126Z,9.40
2022-10-08T23:52:43.710Z,9.40
2022-10-08T23:55:10.648Z,9.40
2022-10-08T23:57:37.297Z,9.40
